createdAt,value
2022-09-04T00:08:01.203Z,10.23
2022-09-04T00:18:10.698Z,18.53
2022-09-04T00:28:25.749Z,11.57
2022-09-04T00:38:45.143Z,11.67
2022-09-04T00:49:11.543Z,12.73
2022-09-04T00:59:18.680Z,15.93
2022-09-04T01:09:51.046Z,11.77
2022-09-04T01:20:19.652Z,10.23
2022-09-04T01:30:22.500Z,11.73
2022-09-04T01:40:36.209Z,11.83
2022-09-04T01:50:39.986Z,11.07
2022-09-04T02:01:11.185Z,11.67
2022-09-04T02:11:19.298Z,9.23
2022-09-04T02:21:37.789Z,10.53
2022-09-04T02:31:52.245Z,12.93
2022-09-04T02:42:06.438Z,14.37
2022-09-04T02:52:23.059Z,12.77
2022-09-04T03:02:36.159Z,10.23
2022-09-04T03:12:50.346Z,12.13
2022-09-04T03:23:16.458Z,11.87
2022-09-04T03:33:37.950Z,11.43
2022-09-04T03:43:52.785Z,12.40
2022-09-04T03:54:35.393Z,12.03
2022-09-04T04:04:53.857Z,12.10
2022-09-04T04:15:08.888Z,13.53
2022-09-04T04:25:47.673Z,10.60
2022-09-04T04:36:10.199Z,12.43
2022-09-04T04:46:40.095Z,11.00
2022-09-04T04:57:04.013Z,13.03
2022-09-04T05:07:18.315Z,10.60
2022-09-04T05:17:59.163Z,10.07
2022-09-04T05:28:23.289Z,9.32
2022-09-04T05:38:43.963Z,10.60
2022-09-04T05:48:57.937Z,8.68
2022-09-04T05:59:02.594Z,8.35
2022-09-04T06:09:17.154Z,11.23
2022-09-04T06:19:37.877Z,8.55
2022-09-04T06:30:06.521Z,7.50
2022-09-04T06:40:24.454Z,6.35
2022-09-04T06:50:50.188Z,8.90
2022-09-04T07:01:08.602Z,8.27
2022-09-04T07:11:31.844Z,6.88
2022-09-04T07:21:40.329Z,5.95
2022-09-04T07:31:46.884Z,6.43
2022-09-04T07:41:54.601Z,4.40
2022-09-04T07:52:03.831Z,7.53
2022-09-04T08:02:29.493Z,4.97
2022-09-04T08:12:59.602Z,7.95
2022-09-04T08:23:20.691Z,5.35
2022-09-04T08:33:39.412Z,7.82
2022-09-04T08:44:16.140Z,4.10
2022-09-04T08:54:47.596Z,5.03
2022-09-04T09:05:00.275Z,5.13
2022-09-04T09:15:23.100Z,5.30
2022-09-04T09:25:49.624Z,5.60
2022-09-04T09:36:07.983Z,5.43
2022-09-04T09:46:38.764Z,5.38
2022-09-04T09:57:20.143Z,5.40
2022-09-04T10:07:37.276Z,5.68
2022-09-04T10:18:00.582Z,4.38
2022-09-04T10:28:14.888Z,5.88
2022-09-04T10:38:28.729Z,5.57
2022-09-04T10:49:02.003Z,5.93
2022-09-04T10:59:13.039Z,8.25
2022-09-04T11:09:31.745Z,6.18
2022-09-04T11:20:16.163Z,7.72
2022-09-04T11:30:59.124Z,5.82
2022-09-04T11:41:36.693Z,6.88
2022-09-04T11:52:06.729Z,6.60
2022-09-04T12:02:29.169Z,7.45
2022-09-04T12:12:31.226Z,5.65
2022-09-04T12:23:11.695Z,5.05
2022-09-04T12:33:29.181Z,6.32
2022-09-04T12:43:31.326Z,6.32
2022-09-04T12:53:37.413Z,5.60
2022-09-04T13:03:47.262Z,6.93
2022-09-04T13:13:56.921Z,4.90
2022-09-04T13:24:01.607Z,5.70
2022-09-04T13:34:29.256Z,4.78
2022-09-04T13:44:56.564Z,5.88
2022-09-04T13:55:09.669Z,6.55
2022-09-04T14:05:24.356Z,4.28
2022-09-04T14:15:38.491Z,5.43
2022-09-04T14:25:59.162Z,3.85
2022-09-04T14:36:07.779Z,4.65
2022-09-04T14:46:28.868Z,4.85
2022-09-04T14:56:58.683Z,4.78
2022-09-04T15:07:29.502Z,4.18
2022-09-04T15:17:38.446Z,7.75
2022-09-04T15:27:50.750Z,4.35
2022-09-04T15:38:06.790Z,5.55
2022-09-04T15:48:54.168Z,5.18
2022-09-04T15:59:29.955Z,4.30
2022-09-04T16:09:44.067Z,5.22
2022-09-04T16:20:12.919Z,6.25
2022-09-04T16:30:30.461Z,5.70
2022-09-04T16:40:48.813Z,4.53
2022-09-04T16:51:39.187Z,4.03
2022-09-04T17:01:52.354Z,7.57
2022-09-04T17:11:58.975Z,7.57
2022-09-04T17:29:02.979Z,4.20
2022-09-04T17:38:24.339Z,3.53
2022-09-04T17:44:03.108Z,5.05
2022-09-04T17:54:14.550Z,8.70
2022-09-04T18:04:37.687Z,5.85
2022-09-04T18:15:33.360Z,6.10
2022-09-04T18:25:51.009Z,6.15
2022-09-04T18:37:20.792Z,4.60
2022-09-04T18:50:40.368Z,5.65
2022-09-04T18:57:06.622Z,2.38
2022-09-04T19:07:19.602Z,2.78
2022-09-04T19:17:35.745Z,5.22
2022-09-04T19:27:43.524Z,2.83
2022-09-04T19:40:15.201Z,2.17
2022-09-04T19:50:01.811Z,2.33
2022-09-04T19:59:23.301Z,3.15
2022-09-04T20:09:38.725Z,4.63
2022-09-04T20:20:01.341Z,3.78
2022-09-04T20:30:25.112Z,2.85
2022-09-04T20:40:41.111Z,3.10
2022-09-04T20:52:55.259Z,4.75
2022-09-04T21:03:21.879Z,1.67
2022-09-04T21:11:42.060Z,3.15
2022-09-04T21:22:02.491Z,3.85
2022-09-04T21:32:24.704Z,2.15
2022-09-04T21:42:41.962Z,2.15
2022-09-04T21:53:07.066Z,2.03
2022-09-04T22:03:47.463Z,1.95
2022-09-04T22:14:25.417Z,0.70
2022-09-04T22:24:55.154Z,1.13
2022-09-04T22:35:35.810Z,1.77
2022-09-04T22:46:09.130Z,2.03
2022-09-04T22:56:24.830Z,1.00
2022-09-04T23:08:31.185Z,3.50
2022-09-04T23:17:30.862Z,2.88
2022-09-04T23:28:27.316Z,1.80
2022-09-04T23:38:40.666Z,2.40
2022-09-04T23:49:10.290Z,4.70
2022-09-04T23:59:38.796Z,1.55
